N81 weather

Hammonton Municipal Airport
Hammonton, New Jersey, United States

Public forecast

Using degrees Fahrenheit for public forecast. Weather courtesy of forecast.io.

Closest aviation weather report (METAR) to Hammonton Municipal Airport

Closest report is Atlantic City International Airport, 15.1 nm (28.0 km) SSE. Retrieved 2019/12/07 12:54 UTC (1 hour ago):

KACY 071254Z 35006KT 10SM CLR 00/M05 A3036

Closest aviation forecast (TAF) to Hammonton Municipal Airport

Closest forecast is Atlantic City International Airport, 15.1 nm (28.0 km) SSE. Retrieved 2019/12/07 12:31 UTC (1 hour ago):

TAF KACY 071124Z 0712/0812 33008KT P6SM SCT220 FM080000 VRB04KT P6SM FEW250